createdAt,value
2019-05-15T00:00:48.019Z,38.53
2019-05-15T00:03:20.614Z,37.65
2019-05-15T00:05:52.037Z,37.98
2019-05-15T00:08:24.511Z,37.03
2019-05-15T00:10:58.080Z,36.20
2019-05-15T00:13:29.666Z,37.58
2019-05-15T00:16:01.728Z,39.98
2019-05-15T00:18:33.384Z,38.98
2019-05-15T00:21:05.138Z,41.02
2019-05-15T00:23:38.720Z,40.08
2019-05-15T00:26:10.939Z,37.88
2019-05-15T00:28:42.788Z,35.33
2019-05-15T00:31:14.958Z,37.75
2019-05-15T00:33:48.248Z,40.25
2019-05-15T00:36:20.309Z,38.85
2019-05-15T00:38:51.968Z,39.30
2019-05-15T00:41:23.726Z,40.15
2019-05-15T00:43:58.557Z,38.42
2019-05-15T00:46:29.983Z,38.00
2019-05-15T00:49:01.840Z,39.03
2019-05-15T00:51:33.803Z,38.42
2019-05-15T00:54:08.285Z,41.37
2019-05-15T00:56:39.784Z,38.40
2019-05-15T00:59:23.198Z,37.15
2019-05-15T01:01:45.108Z,39.53
2019-05-15T01:04:18.749Z,38.85
2019-05-15T01:06:52.657Z,38.25
2019-05-15T01:09:25.429Z,41.37
2019-05-15T01:11:58.715Z,42.75
2019-05-15T01:14:30.371Z,40.20
2019-05-15T01:17:02.139Z,38.83
2019-05-15T01:19:34.095Z,39.80
2019-05-15T01:22:05.640Z,44.15
2019-05-15T01:24:38.922Z,42.05
2019-05-15T01:27:10.606Z,42.53
2019-05-15T01:29:45.190Z,43.75
2019-05-15T01:32:15.952Z,45.50
2019-05-15T01:34:49.031Z,43.25
2019-05-15T01:37:20.689Z,46.60
2019-05-15T01:39:52.378Z,45.83
2019-05-15T01:42:24.106Z,44.00
2019-05-15T01:44:56.071Z,42.80
2019-05-15T01:47:28.169Z,41.70
2019-05-15T01:49:59.895Z,40.12
2019-05-15T01:52:32.009Z,39.60
2019-05-15T01:55:04.885Z,43.10
2019-05-15T01:57:38.391Z,42.43
2019-05-15T02:00:10.489Z,42.00
2019-05-15T02:02:42.680Z,41.30
2019-05-15T02:05:15.150Z,41.40
2019-05-15T02:07:47.892Z,40.00
2019-05-15T02:10:19.479Z,40.60
2019-05-15T02:12:51.132Z,40.98
2019-05-15T02:15:22.889Z,41.58
2019-05-15T02:17:54.747Z,40.00
2019-05-15T02:20:28.954Z,39.95
2019-05-15T02:22:59.810Z,40.25
2019-05-15T02:25:31.251Z,39.48
2019-05-15T02:28:03.165Z,42.43
2019-05-15T02:30:34.786Z,44.08
2019-05-15T02:33:10.079Z,41.60
2019-05-15T02:35:39.967Z,41.20
2019-05-15T02:38:15.379Z,41.85
2019-05-15T02:40:44.561Z,41.42
2019-05-15T02:43:19.015Z,41.85
2019-05-15T02:45:50.845Z,43.87
2019-05-15T02:48:22.502Z,43.52
2019-05-15T02:50:54.964Z,46.95
2019-05-15T02:53:29.923Z,45.78
2019-05-15T02:56:00.838Z,43.75
2019-05-15T02:58:32.392Z,41.48
2019-05-15T03:01:04.456Z,41.70
2019-05-15T03:03:38.749Z,41.77
2019-05-15T03:06:10.205Z,42.85
2019-05-15T03:08:41.770Z,41.77
2019-05-15T03:11:13.767Z,44.40
2019-05-15T03:13:46.108Z,41.63
2019-05-15T03:16:19.384Z,42.48
2019-05-15T03:18:55.265Z,45.23
2019-05-15T03:21:24.147Z,42.70
2019-05-15T03:23:59.252Z,45.85
2019-05-15T03:26:30.088Z,42.75
2019-05-15T03:29:01.980Z,41.00
2019-05-15T03:31:49.424Z,48.17
2019-05-15T03:34:19.293Z,44.25
2019-05-15T03:36:44.948Z,46.18
2019-05-15T03:39:14.435Z,47.08
2019-05-15T03:41:49.539Z,40.48
2019-05-15T03:44:20.057Z,44.83
2019-05-15T03:46:51.754Z,42.00
2019-05-15T03:49:23.506Z,40.48
2019-05-15T03:51:55.305Z,42.98
2019-05-15T03:54:29.313Z,47.83
2019-05-15T03:57:00.214Z,38.95
2019-05-15T03:59:31.781Z,36.53
2019-05-15T04:02:03.970Z,36.40
2019-05-15T04:04:38.629Z,38.40
2019-05-15T04:07:10.009Z,36.10
2019-05-15T04:09:41.460Z,32.10
2019-05-15T04:12:13.229Z,32.50
2019-05-15T04:14:45.284Z,32.98
2019-05-15T04:17:19.721Z,32.63
2019-05-15T04:19:49.927Z,31.55
2019-05-15T04:22:21.786Z,29.00
2019-05-15T04:24:54.879Z,29.27
2019-05-15T04:27:29.012Z,26.97
2019-05-15T04:30:00.741Z,27.98
2019-05-15T04:32:33.110Z,25.80
2019-05-15T04:35:09.217Z,23.07
2019-05-15T04:37:41.295Z,29.52
2019-05-15T04:40:13.507Z,28.62
2019-05-15T04:42:45.462Z,28.62
2019-05-15T04:45:19.453Z,27.42
2019-05-15T04:47:50.725Z,28.80
2019-05-15T04:50:22.276Z,27.42
2019-05-15T04:52:54.393Z,28.60
2019-05-15T04:55:28.974Z,29.12
2019-05-15T04:57:59.714Z,27.20
2019-05-15T05:00:49.698Z,29.32
2019-05-15T05:03:22.240Z,26.42
2019-05-15T05:05:54.016Z,27.35
2019-05-15T05:08:30.386Z,27.50
2019-05-15T05:11:01.727Z,25.20
2019-05-15T05:13:34.619Z,26.17
2019-05-15T05:16:09.219Z,24.30
2019-05-15T05:18:41.674Z,22.50
2019-05-15T05:21:13.566Z,22.65
2019-05-15T05:23:45.476Z,24.85
2019-05-15T05:26:18.517Z,22.75
2019-05-15T05:28:50.279Z,22.32
2019-05-15T05:31:21.927Z,23.05
2019-05-15T05:33:53.786Z,21.80
2019-05-15T05:36:27.900Z,21.45
2019-05-15T05:38:59.555Z,22.95
2019-05-15T05:41:31.324Z,22.67
2019-05-15T05:44:03.587Z,23.62
2019-05-15T05:46:35.036Z,22.07
2019-05-15T05:49:08.076Z,17.23
2019-05-15T05:51:39.777Z,16.57
2019-05-15T05:54:12.247Z,16.48
2019-05-15T05:56:44.019Z,16.85
2019-05-15T05:59:15.705Z,16.42
2019-05-15T06:01:48.547Z,14.00
2019-05-15T06:04:20.201Z,13.98
2019-05-15T06:07:05.910Z,15.90
2019-05-15T06:09:27.652Z,26.57
2019-05-15T06:11:59.264Z,16.60
2019-05-15T06:14:30.816Z,16.73
2019-05-15T06:17:02.469Z,14.10
2019-05-15T06:19:34.430Z,14.03
2019-05-15T06:22:08.592Z,12.98
2019-05-15T06:24:39.279Z,11.97
2019-05-15T06:27:11.036Z,15.48
2019-05-15T06:29:42.995Z,11.28
2019-05-15T06:32:14.446Z,11.83
2019-05-15T06:34:48.368Z,11.33
2019-05-15T06:37:19.845Z,13.32
2019-05-15T06:39:51.567Z,14.15
2019-05-15T06:42:23.076Z,13.85
2019-05-15T06:44:54.466Z,15.23
2019-05-15T06:47:28.336Z,11.40
2019-05-15T06:49:59.105Z,11.08
2019-05-15T06:52:30.770Z,12.68
2019-05-15T06:55:02.623Z,13.18
2019-05-15T06:57:34.580Z,16.55
2019-05-15T07:00:08.426Z,12.47
2019-05-15T07:02:40.758Z,11.90
2019-05-15T07:05:12.628Z,13.13
2019-05-15T07:07:44.167Z,15.32
2019-05-15T07:10:16.017Z,13.62
2019-05-15T07:12:51.002Z,13.00
2019-05-15T07:15:21.078Z,15.70
2019-05-15T07:17:52.534Z,13.90
2019-05-15T07:20:24.376Z,14.43
2019-05-15T07:22:58.444Z,17.17
2019-05-15T07:25:29.409Z,21.10
2019-05-15T07:28:01.098Z,17.20
2019-05-15T07:30:32.752Z,18.67
2019-05-15T07:33:04.302Z,17.30
2019-05-15T07:35:38.473Z,18.15
2019-05-15T07:38:09.556Z,18.32
2019-05-15T07:40:41.113Z,16.07
2019-05-15T07:43:13.077Z,14.35
2019-05-15T07:45:44.917Z,13.05
2019-05-15T07:48:18.480Z,13.88
2019-05-15T07:50:50.037Z,12.78
2019-05-15T07:53:21.847Z,13.75
2019-05-15T07:55:53.510Z,15.10
2019-05-15T07:58:25.053Z,14.13
2019-05-15T08:00:58.984Z,15.50
2019-05-15T08:03:31.134Z,13.83
2019-05-15T08:06:03.269Z,14.95
2019-05-15T08:08:34.949Z,13.05
2019-05-15T08:11:17.517Z,12.35
2019-05-15T08:13:39.904Z,12.98
2019-05-15T08:16:11.856Z,12.82
2019-05-15T08:18:43.409Z,12.03
2019-05-15T08:21:15.112Z,11.63
2019-05-15T08:23:48.434Z,11.60
2019-05-15T08:26:20.323Z,11.75
2019-05-15T08:28:51.892Z,11.65
2019-05-15T08:31:23.731Z,12.03
2019-05-15T08:34:09.092Z,13.55
2019-05-15T08:36:31.271Z,12.07
2019-05-15T08:39:04.752Z,11.35
2019-05-15T08:41:38.835Z,12.10
2019-05-15T08:44:09.989Z,9.23
2019-05-15T08:46:44.302Z,9.23
2019-05-15T08:49:14.942Z,9.95
2019-05-15T08:51:48.635Z,8.75
2019-05-15T08:54:20.398Z,9.03
2019-05-15T08:56:51.976Z,8.90
2019-05-15T08:59:23.710Z,8.28
2019-05-15T09:01:55.684Z,9.88
2019-05-15T09:04:33.890Z,9.50
2019-05-15T09:07:01.253Z,10.25
2019-05-15T09:09:34.016Z,10.45
2019-05-15T09:12:08.254Z,11.35
2019-05-15T09:14:39.891Z,9.83
2019-05-15T09:17:11.958Z,10.55
2019-05-15T09:19:43.658Z,9.80
2019-05-15T09:22:15.686Z,9.85
2019-05-15T09:24:48.867Z,11.85
2019-05-15T09:27:20.616Z,9.03
2019-05-15T09:29:52.482Z,11.97
2019-05-15T09:32:24.237Z,11.80
2019-05-15T09:34:59.003Z,12.33
2019-05-15T09:37:29.389Z,11.90
2019-05-15T09:40:01.355Z,13.13
2019-05-15T09:42:38.711Z,13.78
2019-05-15T09:45:09.786Z,13.95
2019-05-15T09:47:41.294Z,12.13
2019-05-15T09:50:13.052Z,11.97
2019-05-15T09:52:44.751Z,12.68
2019-05-15T09:55:18.003Z,12.45
2019-05-15T09:57:49.701Z,13.75
2019-05-15T10:00:22.519Z,18.12
2019-05-15T10:02:54.449Z,20.30
2019-05-15T10:05:28.001Z,20.12
2019-05-15T10:07:59.490Z,17.10
2019-05-15T10:10:31.350Z,16.97
2019-05-15T10:13:03.415Z,16.15
2019-05-15T10:15:34.970Z,16.42
2019-05-15T10:18:09.734Z,16.40
2019-05-15T10:20:40.126Z,17.92
2019-05-15T10:23:11.913Z,23.30
2019-05-15T10:25:43.838Z,21.20
2019-05-15T10:28:18.662Z,19.15
2019-05-15T10:30:49.756Z,22.17
2019-05-15T10:33:21.878Z,19.60
2019-05-15T10:35:53.321Z,27.02
2019-05-15T10:38:25.385Z,18.55
2019-05-15T10:41:07.964Z,19.85
2019-05-15T10:43:30.029Z,19.17
2019-05-15T10:46:01.698Z,22.45
2019-05-15T10:48:34.565Z,17.48
2019-05-15T10:51:09.762Z,19.40
2019-05-15T10:53:40.597Z,14.85
2019-05-15T10:56:12.314Z,11.43
2019-05-15T10:58:43.745Z,12.98
2019-05-15T11:01:16.081Z,12.37
2019-05-15T11:03:49.540Z,13.60
2019-05-15T11:06:20.761Z,13.25
2019-05-15T11:08:52.623Z,13.65
2019-05-15T11:11:24.073Z,12.98
2019-05-15T11:14:00.267Z,12.85
2019-05-15T11:16:28.947Z,13.80
2019-05-15T11:19:00.679Z,11.73
2019-05-15T11:21:32.640Z,12.70
2019-05-15T11:24:04.398Z,11.88
2019-05-15T11:26:36.051Z,13.25
2019-05-15T11:29:09.662Z,15.15
2019-05-15T11:31:41.099Z,13.50
2019-05-15T11:34:12.855Z,15.53
2019-05-15T11:36:44.521Z,15.23
2019-05-15T11:39:18.252Z,14.63
2019-05-15T11:41:50.096Z,12.15
2019-05-15T11:44:21.732Z,14.38
2019-05-15T11:46:53.494Z,11.68
2019-05-15T11:49:25.041Z,13.40
2019-05-15T11:52:00.674Z,15.32
2019-05-15T11:54:31.220Z,13.00
2019-05-15T11:57:02.869Z,12.58
2019-05-15T11:59:34.837Z,13.03
2019-05-15T12:02:08.535Z,12.45
2019-05-15T12:04:40.497Z,12.45
2019-05-15T12:07:12.255Z,12.53
2019-05-15T12:09:43.703Z,11.70
2019-05-15T12:12:15.153Z,12.07
2019-05-15T12:14:49.614Z,13.10
2019-05-15T12:17:20.100Z,12.85
2019-05-15T12:19:58.408Z,13.48
2019-05-15T12:22:24.920Z,13.13
2019-05-15T12:25:00.147Z,14.40
2019-05-15T12:27:29.511Z,13.30
2019-05-15T12:30:01.371Z,14.43
2019-05-15T12:32:36.830Z,14.35
2019-05-15T12:35:07.873Z,13.43
2019-05-15T13:00:42.104Z,13.80
2019-05-15T13:03:14.373Z,13.40
2019-05-15T13:05:48.394Z,13.90
2019-05-15T13:08:19.729Z,13.90
2019-05-15T13:10:51.184Z,13.50
2019-05-15T13:13:23.143Z,13.00
2019-05-15T13:15:54.806Z,13.48
2019-05-15T13:18:28.453Z,13.83
2019-05-15T13:20:59.809Z,14.55
2019-05-15T13:23:31.627Z,14.28
2019-05-15T13:26:03.793Z,14.00
2019-05-15T13:28:35.728Z,15.25
2019-05-15T13:31:09.173Z,15.03
2019-05-15T13:33:41.090Z,15.30
2019-05-15T13:36:12.437Z,16.40
2019-05-15T13:38:44.188Z,16.95
2019-05-15T13:41:18.935Z,16.48
2019-05-15T13:43:50.159Z,17.42
2019-05-15T13:46:21.945Z,17.52
2019-05-15T13:48:53.985Z,17.67
2019-05-15T13:51:25.843Z,18.32
2019-05-15T13:53:57.811Z,17.98
2019-05-15T13:56:29.464Z,16.82
2019-05-15T13:59:02.348Z,16.93
2019-05-15T14:01:34.363Z,17.70
2019-05-15T14:04:08.579Z,16.25
2019-05-15T14:06:40.894Z,17.17
2019-05-15T14:09:12.449Z,16.97
2019-05-15T14:11:44.409Z,18.35
2019-05-15T14:14:15.767Z,17.80
2019-05-15T14:16:49.131Z,18.10
2019-05-15T14:19:20.805Z,18.30
2019-05-15T14:21:52.565Z,17.75
2019-05-15T14:24:24.628Z,18.00
2019-05-15T14:26:59.146Z,20.05
2019-05-15T14:29:30.089Z,20.17
2019-05-15T14:32:02.767Z,21.45
2019-05-15T14:34:34.526Z,20.02
2019-05-15T14:37:08.525Z,19.20
2019-05-15T14:39:39.188Z,20.92
2019-05-15T14:42:10.822Z,20.97
2019-05-15T14:44:42.574Z,20.72
2019-05-15T14:47:14.237Z,20.10
2019-05-15T14:49:49.277Z,21.10
2019-05-15T14:52:19.399Z,21.20
2019-05-15T14:54:50.841Z,20.97
2019-05-15T14:57:22.696Z,51.70
2019-05-15T14:59:54.480Z,21.17
2019-05-15T15:02:26.732Z,21.70
2019-05-15T15:04:59.471Z,20.48
2019-05-15T15:07:31.978Z,20.12
2019-05-15T15:10:04.920Z,20.52
2019-05-15T15:12:39.177Z,19.90
2019-05-15T15:15:10.709Z,18.40
2019-05-15T15:17:42.693Z,17.52
2019-05-15T15:20:14.864Z,15.35
2019-05-15T15:22:48.596Z,16.40
2019-05-15T15:25:20.219Z,15.70
2019-05-15T15:27:52.076Z,15.63
2019-05-15T15:30:24.043Z,12.82
2019-05-15T15:32:57.613Z,13.10
2019-05-15T15:35:28.998Z,12.73
2019-05-15T15:38:01.571Z,12.98
2019-05-15T15:40:33.322Z,13.90
2019-05-15T15:43:05.396Z,13.83
2019-05-15T15:45:39.016Z,13.43
2019-05-15T15:48:10.047Z,12.13
2019-05-15T15:50:41.578Z,12.55
2019-05-15T15:53:13.698Z,13.13
2019-05-15T15:55:45.611Z,12.35
2019-05-15T15:58:19.712Z,12.15
2019-05-15T16:00:50.327Z,12.43
2019-05-15T16:03:21.750Z,16.85
2019-05-15T16:05:53.331Z,11.95
2019-05-15T16:08:24.819Z,14.10
2019-05-15T16:10:56.186Z,12.20
2019-05-15T16:13:29.199Z,12.80
2019-05-15T16:16:00.913Z,13.13
2019-05-15T16:18:32.520Z,13.30
2019-05-15T16:21:04.027Z,15.03
2019-05-15T16:23:42.677Z,13.45
2019-05-15T16:26:14.050Z,13.30
2019-05-15T16:28:45.483Z,13.00
2019-05-15T16:31:18.630Z,14.98
2019-05-15T16:33:50.346Z,12.82
2019-05-15T16:36:21.873Z,13.58
2019-05-15T16:39:05.320Z,12.90
2019-05-15T16:41:28.838Z,14.10
2019-05-15T16:43:59.781Z,24.02
2019-05-15T16:46:31.285Z,36.17
2019-05-15T16:49:03.010Z,19.12
2019-05-15T16:51:34.444Z,12.37
2019-05-15T16:54:08.429Z,12.10
2019-05-15T16:56:40.243Z,12.23
2019-05-15T16:59:11.948Z,12.55
2019-05-15T17:01:44.101Z,14.20
2019-05-15T17:04:18.031Z,13.43
2019-05-15T17:06:49.461Z,12.95
2019-05-15T17:09:21.868Z,12.28
2019-05-15T17:11:53.821Z,13.48
2019-05-15T17:14:28.807Z,14.23
2019-05-15T17:16:59.585Z,14.53
2019-05-15T17:19:31.086Z,15.45
2019-05-15T17:22:02.544Z,17.92
2019-05-15T17:24:33.929Z,18.85
2019-05-15T17:27:05.488Z,21.77
2019-05-15T17:29:38.510Z,21.48
2019-05-15T17:32:10.028Z,20.30
2019-05-15T17:34:41.429Z,22.40
2019-05-15T17:37:12.795Z,20.72
2019-05-15T17:39:44.227Z,22.20
2019-05-15T17:42:18.209Z,23.10
2019-05-15T17:44:49.694Z,24.90
2019-05-15T17:47:21.013Z,25.92
2019-05-15T17:52:23.149Z,24.98
2019-05-15T17:54:54.944Z,28.05
2019-05-15T17:57:28.458Z,26.95
2019-05-15T17:59:59.875Z,27.70
2019-05-15T18:02:31.930Z,25.82
2019-05-15T18:05:04.958Z,28.62
2019-05-15T18:07:38.849Z,19.98
2019-05-15T18:10:10.423Z,30.88
2019-05-15T18:12:42.016Z,31.15
2019-05-15T18:15:14.071Z,31.45
2019-05-15T18:17:47.921Z,30.35
2019-05-15T18:20:29.440Z,31.30
2019-05-15T18:23:01.790Z,28.50
2019-05-15T18:25:33.252Z,39.60
2019-05-15T18:28:05.046Z,40.05
2019-05-15T18:30:38.858Z,45.90
2019-05-15T18:33:10.177Z,48.08
2019-05-15T18:35:41.706Z,54.35
2019-05-15T18:38:13.083Z,58.45
2019-05-15T18:40:44.544Z,56.23
2019-05-15T18:43:17.986Z,53.58
2019-05-15T18:45:49.424Z,45.45
2019-05-15T18:48:20.848Z,35.30
2019-05-15T18:50:52.124Z,29.90
2019-05-15T18:53:24.006Z,39.65
2019-05-15T18:55:55.529Z,35.38
2019-05-15T18:58:26.993Z,47.08
2019-05-15T19:00:59.315Z,48.30
2019-05-15T19:03:31.271Z,54.73
2019-05-15T19:06:02.964Z,41.83
2019-05-15T19:08:35.381Z,45.50
2019-05-15T19:11:07.044Z,38.25
2019-05-15T19:13:38.944Z,46.33
2019-05-15T19:16:10.693Z,46.35
2019-05-15T19:18:42.358Z,41.70
2019-05-15T19:21:13.902Z,44.67
2019-05-15T19:23:47.346Z,39.73
2019-05-15T19:26:18.519Z,39.42
2019-05-15T19:31:26.618Z,39.70
2019-05-15T19:33:53.729Z,49.42
2019-05-15T19:38:55.473Z,50.25
2019-05-15T19:41:28.865Z,48.30
2019-05-15T19:44:00.894Z,51.00
2019-05-15T19:46:32.470Z,47.05
2019-05-15T19:49:04.225Z,48.83
2019-05-15T19:51:38.111Z,50.98
2019-05-15T19:54:10.196Z,53.78
2019-05-15T19:56:42.836Z,61.08
2019-05-15T19:59:14.493Z,62.05
2019-05-15T20:01:48.480Z,61.02
2019-05-15T20:04:19.500Z,60.92
2019-05-15T20:06:51.040Z,65.62
2019-05-15T20:09:22.563Z,65.90
2019-05-15T20:11:53.918Z,65.52
2019-05-15T20:14:25.528Z,66.00
2019-05-15T20:16:58.918Z,65.72
2019-05-15T20:19:30.773Z,65.22
2019-05-15T20:22:02.459Z,27.17
2019-05-15T20:24:34.468Z,23.57
2019-05-15T20:29:38.293Z,22.77
2019-05-15T20:32:09.689Z,22.98
2019-05-15T20:34:41.182Z,22.98
2019-05-15T20:39:43.062Z,21.02
2019-05-15T20:42:14.472Z,21.77
2019-05-15T20:44:48.419Z,25.40
2019-05-15T20:47:19.427Z,23.42
2019-05-15T20:49:50.724Z,20.60
2019-05-15T20:54:53.261Z,22.17
2019-05-15T20:57:24.703Z,22.22
2019-05-15T20:59:58.562Z,21.87
2019-05-15T21:02:29.952Z,21.40
2019-05-15T21:05:01.426Z,23.32
2019-05-15T21:07:38.096Z,23.07
2019-05-15T21:10:08.578Z,23.02
2019-05-15T21:12:41.445Z,22.77
2019-05-15T21:15:14.323Z,23.05
2019-05-15T21:17:55.128Z,24.05
2019-05-15T21:20:19.399Z,26.07
2019-05-15T21:22:50.904Z,25.35
2019-05-15T21:27:52.651Z,25.75
2019-05-15T21:30:24.115Z,25.30
2019-05-15T21:32:58.090Z,25.72
2019-05-15T21:35:30.574Z,26.40
2019-05-15T21:38:01.953Z,25.65
2019-05-15T21:40:33.511Z,26.65
2019-05-15T21:43:05.088Z,25.62
2019-05-15T21:45:37.643Z,24.82
2019-05-15T21:48:09.722Z,24.35
2019-05-15T21:53:11.619Z,24.27
2019-05-15T21:55:43.232Z,22.60
2019-05-15T22:00:48.582Z,23.73
2019-05-15T22:03:20.963Z,24.10
2019-05-15T22:05:52.556Z,23.83
2019-05-15T22:08:24.417Z,24.20
2019-05-15T22:10:55.973Z,25.92
2019-05-15T22:13:28.620Z,24.32
2019-05-15T22:16:00.742Z,26.30
2019-05-15T22:18:32.340Z,26.17
2019-05-15T22:21:04.005Z,27.70
2019-05-15T22:26:05.942Z,29.55
2019-05-15T22:28:38.629Z,29.23
2019-05-15T22:31:11.440Z,28.17
2019-05-15T22:33:42.930Z,29.10
2019-05-15T22:36:14.577Z,27.35
2019-05-15T22:41:18.765Z,28.25
2019-05-15T22:43:49.320Z,29.30
2019-05-15T22:48:51.085Z,28.85
2019-05-15T22:51:22.690Z,28.00
2019-05-15T22:56:24.770Z,30.13
2019-05-15T23:01:26.721Z,31.60
2019-05-15T23:03:58.577Z,30.17
2019-05-15T23:06:30.155Z,30.27
2019-05-15T23:09:01.672Z,31.25
2019-05-15T23:11:34.620Z,31.20
2019-05-15T23:14:08.158Z,30.82
2019-05-15T23:16:39.289Z,31.33
2019-05-15T23:19:10.624Z,30.02
2019-05-15T23:21:42.075Z,31.02
2019-05-15T23:24:13.861Z,28.98
2019-05-15T23:26:47.658Z,28.00
2019-05-15T23:29:19.213Z,28.95
2019-05-15T23:31:50.871Z,30.57
2019-05-15T23:34:22.431Z,29.55
2019-05-15T23:36:53.977Z,29.00
2019-05-15T23:39:25.545Z,30.90
2019-05-15T23:41:58.463Z,31.30
2019-05-15T23:44:29.890Z,32.03
2019-05-15T23:47:01.244Z,30.92
2019-05-15T23:52:03.105Z,29.67
2019-05-15T23:54:34.639Z,29.18
2019-05-15T23:59:38.292Z,30.97
